createdAt,value
2019-02-26T00:03:12.352Z,62648.08
2019-02-26T00:05:38.640Z,62653.50
2019-02-26T00:08:04.936Z,62662.98
2019-02-26T00:10:32.135Z,62653.50
2019-02-26T00:12:59.425Z,62663.23
2019-02-26T00:15:25.705Z,62665.93
2019-02-26T00:17:53.003Z,62669.36
2019-02-26T00:20:20.234Z,62667.64
2019-02-26T00:22:46.527Z,62662.83
2019-02-26T00:25:15.368Z,62667.31
2019-02-26T00:27:41.007Z,62667.86
2019-02-26T00:30:48.609Z,62669.96
2019-02-26T00:33:16.801Z,62670.70
2019-02-26T00:35:43.928Z,62657.66
2019-02-26T00:38:13.264Z,62658.48
2019-02-26T00:40:40.993Z,62654.32
2019-02-26T00:43:07.666Z,62664.05
2019-02-26T00:45:34.570Z,62683.09
2019-02-26T00:48:02.153Z,62676.35
2019-02-26T00:50:30.176Z,62704.70
2019-02-26T00:52:59.151Z,62697.01
2019-02-26T00:55:27.306Z,62683.62
2019-02-26T00:57:56.833Z,62672.32
2019-02-26T01:00:21.225Z,62689.14
2019-02-26T01:02:47.537Z,62689.05
2019-02-26T01:05:56.961Z,62685.66
2019-02-26T01:08:23.308Z,62688.25
2019-02-26T01:10:49.603Z,62678.04
2019-02-26T01:13:15.885Z,62677.11
2019-02-26T01:15:42.179Z,62676.02
2019-02-26T01:18:08.462Z,62661.25
2019-02-26T01:20:34.793Z,62671.66
2019-02-26T01:23:01.076Z,62659.08
2019-02-26T01:25:27.375Z,62647.31
2019-02-26T01:27:55.707Z,62637.21
2019-02-26T01:30:24.311Z,62635.09
2019-02-26T01:32:50.042Z,62636.93
2019-02-26T01:35:16.327Z,62652.63
2019-02-26T01:37:42.646Z,62662.14
2019-02-26T01:40:43.613Z,62652.21
2019-02-26T01:43:09.542Z,62644.80
2019-02-26T01:45:35.833Z,62644.67
2019-02-26T01:48:03.917Z,62684.18
2019-02-26T01:50:31.482Z,62672.49
2019-02-26T01:53:00.509Z,62669.50
2019-02-26T01:55:27.706Z,62660.92
2019-02-26T01:57:58.521Z,62676.07
2019-02-26T02:00:25.464Z,62685.80
2019-02-26T02:02:51.326Z,62666.15
2019-02-26T02:05:19.660Z,62685.25
2019-02-26T02:07:48.473Z,62679.28
2019-02-26T02:13:14.993Z,62673.85
2019-02-26T02:15:42.257Z,62686.89
2019-02-26T02:20:43.761Z,62672.74
2019-02-26T02:23:10.058Z,62686.35
2019-02-26T02:25:38.738Z,62672.32
2019-02-26T02:28:04.599Z,62687.99
2019-02-26T02:30:31.771Z,62680.78
2019-02-26T02:33:01.458Z,62684.64
2019-02-26T02:35:27.329Z,62717.89
2019-02-26T02:37:56.290Z,62723.34
2019-02-26T02:40:21.820Z,62706.20
2019-02-26T02:42:49.158Z,62706.27
2019-02-26T02:45:20.301Z,62702.68
2019-02-26T02:47:44.511Z,62702.19
2019-02-26T02:50:52.179Z,62692.33
2019-02-26T02:53:21.031Z,62686.13
2019-02-26T02:55:48.859Z,62703.54
2019-02-26T02:58:17.767Z,62728.75
2019-02-26T03:00:43.126Z,62718.97
2019-02-26T03:03:09.407Z,62729.32
2019-02-26T03:05:38.090Z,62734.78
2019-02-26T03:08:23.674Z,62744.00
2019-02-26T03:10:49.964Z,62756.65
2019-02-26T03:13:16.916Z,62759.81
2019-02-26T03:15:44.477Z,62744.56
2019-02-26T03:18:12.512Z,62723.12
2019-02-26T03:20:40.288Z,62707.47
2019-02-26T03:23:09.350Z,62704.35
2019-02-26T03:25:35.402Z,62699.94
2019-02-26T03:28:01.708Z,62695.06
2019-02-26T03:30:36.913Z,62681.52
2019-02-26T03:33:00.214Z,62699.18
2019-02-26T03:35:24.407Z,62704.90
2019-02-26T03:37:52.401Z,62705.39
2019-02-26T03:40:20.891Z,62713.12
2019-02-26T03:42:47.078Z,62729.30
2019-02-26T03:45:33.124Z,62741.30
2019-02-26T03:47:59.408Z,62718.84
2019-02-26T03:50:27.068Z,62719.59
2019-02-26T03:52:53.918Z,62733.68
2019-02-26T03:55:20.332Z,62753.06
2019-02-26T03:57:47.333Z,62758.49
2019-02-26T04:03:17.424Z,62731.14
2019-02-26T04:05:43.970Z,62742.32
2019-02-26T04:08:10.258Z,62733.68
2019-02-26T04:10:36.508Z,62697.34
2019-02-26T04:13:02.781Z,62716.58
2019-02-26T04:15:31.043Z,62719.94
2019-02-26T04:17:57.195Z,62724.96
2019-02-26T04:20:26.923Z,62707.21
2019-02-26T04:22:53.352Z,62700.07
2019-02-26T04:28:52.867Z,62691.80
2019-02-26T04:35:05.080Z,62691.36
2019-02-26T04:46:53.931Z,62709.26
2019-02-26T04:52:05.607Z,62588.96
2019-02-26T04:54:33.688Z,62750.05
2019-02-26T04:57:00.393Z,62735.98
2019-02-26T04:59:26.624Z,62736.80
2019-02-26T05:01:55.114Z,62760.41
2019-02-26T05:04:21.083Z,62763.05
2019-02-26T05:06:47.328Z,62765.42
2019-02-26T05:09:13.572Z,62786.57
2019-02-26T05:11:40.701Z,62767.73
2019-02-26T05:14:09.213Z,62753.11
2019-02-26T05:16:37.799Z,62767.96
2019-02-26T05:19:04.278Z,62759.57
2019-02-26T05:21:32.492Z,62787.49
2019-02-26T05:24:00.173Z,62775.43
2019-02-26T05:26:26.816Z,62770.75
2019-02-26T05:28:53.031Z,62775.03
2019-02-26T05:32:01.738Z,62761.43
2019-02-26T05:34:28.714Z,62746.59
2019-02-26T05:36:54.957Z,62735.37
2019-02-26T05:39:23.636Z,62740.66
2019-02-26T05:41:52.298Z,62772.91
2019-02-26T05:44:17.510Z,62770.20
2019-02-26T05:46:43.774Z,62761.21
2019-02-26T05:49:13.395Z,62779.39
2019-02-26T05:51:38.393Z,62770.52
2019-02-26T05:54:08.268Z,62759.31
2019-02-26T05:56:37.011Z,62747.06
2019-02-26T05:59:06.849Z,62751.74
2019-02-26T06:04:04.753Z,62777.48
2019-02-26T06:06:31.682Z,62786.74
2019-02-26T06:08:59.768Z,62776.03
2019-02-26T06:11:28.372Z,62772.42
2019-02-26T06:13:56.319Z,62794.94
2019-02-26T06:16:24.252Z,62796.04
2019-02-26T06:18:51.748Z,62781.09
2019-02-26T06:26:47.083Z,62803.12
2019-02-26T06:29:13.315Z,62825.39
2019-02-26T06:31:42.249Z,62827.29
2019-02-26T06:34:08.687Z,62831.38
2019-02-26T06:36:35.885Z,62838.21
2019-02-26T06:39:04.220Z,62824.97
2019-02-26T06:41:30.371Z,62826.07
2019-02-26T06:43:56.619Z,62852.22
2019-02-26T06:46:22.842Z,62840.48
2019-02-26T06:48:49.084Z,62836.21
2019-02-26T06:51:15.315Z,62856.78
2019-02-26T06:53:45.018Z,62861.07
2019-02-26T06:56:09.701Z,62869.23
2019-02-26T06:58:37.959Z,62866.38
2019-02-26T07:03:32.122Z,62864.46
2019-02-26T07:06:01.646Z,62864.94
2019-02-26T07:08:28.570Z,62865.98
2019-02-26T07:10:54.776Z,62858.95
2019-02-26T07:13:21.007Z,62867.08
2019-02-26T07:15:47.249Z,62867.18
2019-02-26T07:18:16.960Z,62893.77
2019-02-26T07:20:46.538Z,62883.39
2019-02-26T07:23:10.569Z,62881.77
2019-02-26T07:25:40.913Z,62888.85
2019-02-26T07:28:06.106Z,62896.34
2019-02-26T07:30:32.643Z,62883.74
2019-02-26T07:33:00.493Z,62893.42
2019-02-26T07:35:28.790Z,62913.70
2019-02-26T07:37:56.665Z,62939.32
2019-02-26T07:40:23.041Z,62939.82
2019-02-26T07:42:49.444Z,62925.50
2019-02-26T07:45:19.762Z,62929.39
2019-02-26T07:47:45.193Z,62930.89
2019-02-26T07:50:14.322Z,62943.92
2019-02-26T07:52:40.147Z,62928.37
2019-02-26T07:58:08.775Z,62927.40
2019-02-26T08:00:37.245Z,62920.19
2019-02-26T08:03:04.679Z,62928.92
2019-02-26T08:05:31.183Z,62929.39
2019-02-26T08:07:57.434Z,62948.13
2019-02-26T08:10:23.655Z,62950.73
2019-02-26T08:12:49.899Z,62966.68
2019-02-26T08:15:16.223Z,62987.87
2019-02-26T08:17:45.624Z,63006.40
2019-02-26T08:20:23.079Z,63014.87
2019-02-26T08:22:51.358Z,63006.95
2019-02-26T08:25:17.488Z,62998.63
2019-02-26T08:27:43.735Z,62996.34
2019-02-26T08:30:29.725Z,63002.84
2019-02-26T08:32:56.919Z,62990.25
2019-02-26T08:35:24.163Z,62992.21
2019-02-26T08:37:50.387Z,63021.92
2019-02-26T08:40:16.633Z,63013.75
2019-02-26T08:42:42.988Z,63017.02
2019-02-26T08:45:30.889Z,63017.47
2019-02-26T08:47:57.121Z,63031.25
2019-02-26T08:50:23.347Z,63026.37
2019-02-26T08:52:52.749Z,63030.15
2019-02-26T08:55:20.911Z,63034.10
2019-02-26T08:57:45.868Z,63043.16
2019-02-26T09:03:26.175Z,63066.44
2019-02-26T09:05:53.996Z,63072.09
2019-02-26T09:08:20.559Z,63069.80
2019-02-26T09:10:48.591Z,63076.22
2019-02-26T09:13:16.392Z,63087.97
2019-02-26T09:15:43.237Z,63091.25
2019-02-26T09:18:09.495Z,63084.70
2019-02-26T09:20:35.775Z,63072.09
2019-02-26T09:23:02.014Z,63081.94
2019-02-26T09:25:29.589Z,63096.33
2019-02-26T09:27:56.386Z,63102.48
2019-02-26T09:30:22.621Z,63104.30
2019-02-26T09:32:48.855Z,63099.81
2019-02-26T09:35:56.775Z,63102.21
2019-02-26T09:38:25.486Z,63105.96
2019-02-26T09:40:52.365Z,63113.09
2019-02-26T09:43:20.217Z,63122.92
2019-02-26T09:45:48.316Z,63102.25
2019-02-26T09:48:17.029Z,63110.33
2019-02-26T09:50:46.234Z,63137.70
2019-02-26T09:53:11.885Z,63137.73
2019-02-26T09:55:38.132Z,63142.86
2019-02-26T09:58:04.364Z,63143.73
2019-02-26T10:00:30.620Z,63150.98
2019-02-26T10:02:56.845Z,63140.05
2019-02-26T10:05:23.079Z,63139.50
2019-02-26T10:07:53.625Z,63143.12
2019-02-26T10:13:18.832Z,63151.39
2019-02-26T10:15:46.023Z,63148.66
2019-02-26T10:18:12.247Z,63148.23
2019-02-26T10:20:38.521Z,63149.96
2019-02-26T10:23:06.312Z,63152.95
2019-02-26T10:25:34.942Z,63160.26
2019-02-26T10:28:05.698Z,63175.38
2019-02-26T10:30:31.396Z,63167.75
2019-02-26T10:33:01.967Z,63164.51
2019-02-26T10:35:33.125Z,63171.07
2019-02-26T10:38:36.531Z,63171.74
2019-02-26T10:41:05.041Z,63186.31
2019-02-26T10:43:31.437Z,63169.34
2019-02-26T10:45:57.663Z,63173.71
2019-02-26T10:48:25.107Z,63199.14
2019-02-26T10:50:52.113Z,63189.65
2019-02-26T10:53:20.359Z,63193.13
2019-02-26T10:55:46.529Z,63209.32
2019-02-26T10:58:13.322Z,63209.87
2019-02-26T11:00:41.034Z,63228.70
2019-02-26T11:03:09.181Z,63247.17
2019-02-26T11:05:37.209Z,63262.03
2019-02-26T11:08:08.482Z,63267.28
2019-02-26T11:10:32.014Z,63264.00
2019-02-26T11:12:59.932Z,63250.45
2019-02-26T11:15:26.840Z,63251.09
2019-02-26T11:17:55.904Z,63242.12
2019-02-26T11:20:25.445Z,63219.41
2019-02-26T11:22:52.082Z,63229.45
2019-02-26T11:27:52.970Z,63217.44
2019-02-26T11:31:00.527Z,63209.90
2019-02-26T11:33:26.752Z,63202.88
2019-02-26T11:35:52.995Z,63201.38
2019-02-26T11:38:19.714Z,63196.45
2019-02-26T11:40:47.396Z,63221.56
2019-02-26T11:43:14.969Z,63233.33
2019-02-26T11:45:42.624Z,63241.54
2019-02-26T11:48:09.924Z,63247.55
2019-02-26T11:50:36.818Z,63241.57
2019-02-26T11:53:04.291Z,63231.65
2019-02-26T11:55:32.391Z,63240.50
2019-02-26T11:57:58.677Z,63236.12
2019-02-26T12:01:06.222Z,63237.11
2019-02-26T12:03:34.139Z,63236.99
2019-02-26T12:06:01.993Z,63221.82
2019-02-26T12:08:28.763Z,63219.84
2019-02-26T12:10:58.088Z,63204.73
2019-02-26T12:13:25.041Z,63195.37
2019-02-26T12:15:51.295Z,63200.58
2019-02-26T12:18:19.818Z,63203.27
2019-02-26T12:20:48.029Z,63196.72
2019-02-26T12:23:27.279Z,63197.84
2019-02-26T12:25:55.465Z,63191.62
2019-02-26T12:28:21.679Z,63207.10
2019-02-26T12:30:47.923Z,63194.47
2019-02-26T12:33:14.824Z,63188.47
2019-02-26T12:35:43.630Z,63171.94
2019-02-26T12:38:18.090Z,63172.57
2019-02-26T12:40:41.111Z,63164.47
2019-02-26T12:43:11.028Z,63152.40
2019-02-26T12:45:38.030Z,63150.75
2019-02-26T12:48:03.077Z,63144.20
2019-02-26T12:50:32.601Z,63153.55
2019-02-26T12:52:57.480Z,63144.12
2019-02-26T12:57:52.788Z,63129.53
2019-02-26T13:00:41.988Z,63125.50
2019-02-26T13:03:09.341Z,63126.80
2019-02-26T13:05:38.422Z,63115.82
2019-02-26T13:08:06.073Z,63102.01
2019-02-26T13:10:32.324Z,63095.23
2019-02-26T13:13:00.008Z,63104.90
2019-02-26T13:15:26.741Z,63091.72
2019-02-26T13:17:54.580Z,63083.77
2019-02-26T13:23:21.888Z,63088.52
2019-02-26T13:25:49.476Z,63091.80
2019-02-26T13:28:15.727Z,63095.07
2019-02-26T13:30:41.955Z,63081.94
2019-02-26T13:33:10.880Z,63078.87
2019-02-26T13:35:36.343Z,63074.37
2019-02-26T13:41:29.047Z,63063.11
2019-02-26T13:43:40.182Z,63048.43
2019-02-26T13:46:26.372Z,63045.01
2019-02-26T13:48:52.614Z,63038.06
2019-02-26T13:51:18.843Z,63027.90
2019-02-26T13:53:45.079Z,63016.64
2019-02-26T13:56:11.306Z,62999.31
2019-02-26T13:58:37.769Z,62998.86
2019-02-26T14:01:45.315Z,62992.56
2019-02-26T14:04:11.556Z,62989.84
2019-02-26T14:06:37.885Z,62995.44
2019-02-26T14:09:45.439Z,62983.23
2019-02-26T14:12:11.972Z,62979.13
2019-02-26T14:14:38.216Z,62969.99
2019-02-26T14:17:04.465Z,62973.62
2019-02-26T14:19:30.703Z,62962.98
2019-02-26T14:21:56.932Z,62961.89
2019-02-26T14:24:24.466Z,62964.28
2019-02-26T14:26:51.343Z,62962.09
2019-02-26T14:29:17.662Z,62957.74
2019-02-26T14:31:43.935Z,62956.09
2019-02-26T14:34:10.166Z,62950.98
2019-02-26T14:36:36.405Z,62949.63
2019-02-26T14:39:43.962Z,62942.82
2019-02-26T14:42:10.187Z,62921.01
2019-02-26T14:44:36.454Z,62918.14
2019-02-26T14:47:02.984Z,62909.43
2019-02-26T14:49:29.220Z,62896.26
2019-02-26T14:51:55.463Z,62886.66
2019-02-26T14:54:21.716Z,62875.56
2019-02-26T14:56:47.955Z,62862.69
2019-02-26T14:59:14.176Z,62852.42
2019-02-26T15:01:42.340Z,62776.98
2019-02-26T15:04:08.572Z,62821.63
2019-02-26T15:06:34.810Z,62813.88
2019-02-26T15:09:01.052Z,62803.32
2019-02-26T15:11:27.310Z,62785.82
2019-02-26T15:13:53.546Z,62786.87
2019-02-26T15:16:19.784Z,62779.04
2019-02-26T15:18:46.013Z,62768.48
2019-02-26T15:21:12.262Z,62765.24
2019-02-26T15:23:38.506Z,62744.42
2019-02-26T15:26:04.754Z,62734.95
2019-02-26T15:28:30.992Z,62727.01
2019-02-26T15:30:57.226Z,62711.15
2019-02-26T15:33:23.453Z,62703.73
2019-02-26T15:35:49.705Z,62694.30
2019-02-26T15:38:15.938Z,62686.88
2019-02-26T15:40:42.171Z,62679.61
2019-02-26T15:43:08.421Z,62678.94
2019-02-26T15:45:34.756Z,62672.54
2019-02-26T15:48:03.755Z,62667.51
2019-02-26T15:50:29.231Z,62663.51
2019-02-26T15:52:55.470Z,62655.89
2019-02-26T15:55:41.459Z,62654.54
2019-02-26T15:58:07.700Z,62644.34
2019-02-26T16:00:37.719Z,62635.44
2019-02-26T16:03:02.082Z,62626.66
2019-02-26T16:05:48.059Z,62634.71
2019-02-26T16:08:14.308Z,62618.92
2019-02-26T16:10:40.536Z,62612.21
2019-02-26T16:13:06.788Z,62613.57
2019-02-26T16:18:46.175Z,62598.08
2019-02-26T16:21:12.395Z,62589.87
2019-02-26T16:23:38.664Z,62592.98
2019-02-26T16:26:08.085Z,62596.51
2019-02-26T16:28:35.055Z,62590.87
2019-02-26T16:31:01.297Z,62583.19
2019-02-26T16:33:27.539Z,62585.64
2019-02-26T16:35:57.618Z,62587.42
2019-02-26T16:38:21.951Z,62572.00
2019-02-26T16:40:48.306Z,62567.45
2019-02-26T16:43:14.765Z,62565.68
2019-02-26T16:45:42.724Z,62561.13
2019-02-26T16:48:08.973Z,62568.94
2019-02-26T16:50:35.218Z,62578.26
2019-02-26T16:53:01.487Z,62573.62
2019-02-26T16:55:29.635Z,62571.80
2019-02-26T16:57:56.008Z,62574.91
2019-02-26T17:00:42.002Z,62579.61
2019-02-26T17:03:08.269Z,62587.21
2019-02-26T17:05:34.498Z,62590.25
2019-02-26T17:08:00.756Z,62598.28
2019-02-26T17:13:14.614Z,62627.83
2019-02-26T17:18:48.322Z,62632.58
2019-02-26T17:21:14.550Z,62639.04
2019-02-26T17:23:40.807Z,62638.63
2019-02-26T17:26:48.413Z,62663.52
2019-02-26T17:31:54.215Z,62682.87
2019-02-26T17:34:23.404Z,62694.57
2019-02-26T17:36:48.596Z,62706.46
2019-02-26T17:39:14.821Z,62701.37
2019-02-26T17:41:44.682Z,62707.34
2019-02-26T17:44:09.240Z,62717.55
2019-02-26T17:46:35.475Z,62714.96
2019-02-26T17:49:02.831Z,62713.07
2019-02-26T17:51:29.971Z,62706.59
2019-02-26T17:53:56.215Z,62712.77
2019-02-26T17:56:26.480Z,62725.09
2019-02-26T17:58:50.637Z,62737.60
2019-02-26T18:01:16.890Z,62740.06
2019-02-26T18:03:45.341Z,62737.67
2019-02-26T18:06:13.077Z,62739.09
2019-02-26T18:08:39.443Z,62743.52
2019-02-26T18:11:05.694Z,62732.91
2019-02-26T18:13:31.930Z,62727.81
2019-02-26T18:15:59.230Z,62729.25
2019-02-26T18:18:26.350Z,62713.87
2019-02-26T18:20:52.587Z,62709.86
2019-02-26T18:23:18.828Z,62711.77
2019-02-26T18:25:45.075Z,62711.02
2019-02-26T18:28:11.296Z,62703.33
2019-02-26T18:30:37.524Z,62718.30
2019-02-26T18:33:03.776Z,62715.16
2019-02-26T18:35:29.997Z,62724.27
2019-02-26T18:37:56.242Z,62717.48
2019-02-26T18:40:22.517Z,62720.06
2019-02-26T18:42:48.718Z,62723.73
2019-02-26T18:45:34.748Z,62717.35
2019-02-26T18:48:00.997Z,62723.87
2019-02-26T18:51:08.541Z,62723.95
2019-02-26T18:53:54.568Z,62720.46
2019-02-26T18:56:20.824Z,62731.49
2019-02-26T18:58:49.122Z,62716.58
2019-02-26T19:01:15.246Z,62721.14
2019-02-26T19:03:41.674Z,62735.30
2019-02-26T19:06:09.656Z,62724.42
2019-02-26T19:08:39.142Z,62727.75
2019-02-26T19:11:04.032Z,62719.64
2019-02-26T19:13:30.271Z,62727.75
2019-02-26T19:15:56.516Z,62736.39
2019-02-26T19:18:22.756Z,62725.91
2019-02-26T19:20:49.636Z,62713.87
2019-02-26T19:23:17.163Z,62714.83
2019-02-26T19:25:43.395Z,62720.01
2019-02-26T19:28:09.920Z,62714.83
2019-02-26T19:30:37.808Z,62715.51
2019-02-26T19:33:04.066Z,62718.97
2019-02-26T19:35:34.809Z,62713.12
2019-02-26T19:38:39.761Z,62716.53
2019-02-26T19:44:19.557Z,62723.60
2019-02-26T19:46:49.436Z,62720.26
2019-02-26T19:49:13.934Z,62713.87
2019-02-26T19:51:40.158Z,62723.34
2019-02-26T19:54:07.003Z,62713.61
2019-02-26T19:56:34.552Z,62723.89
2019-02-26T19:59:00.800Z,62721.23
2019-02-26T20:01:27.035Z,62717.13
2019-02-26T20:03:53.275Z,62720.94
2019-02-26T20:06:23.306Z,62729.18
2019-02-26T20:08:47.647Z,62725.29
2019-02-26T20:11:13.887Z,62731.34
2019-02-26T20:13:42.130Z,62732.02
2019-02-26T20:16:08.268Z,62729.30
2019-02-26T20:18:54.263Z,62730.72
2019-02-26T20:21:22.416Z,62733.66
2019-02-26T20:23:48.693Z,62737.67
2019-02-26T20:26:16.458Z,62742.37
2019-02-26T20:28:43.071Z,62738.34
2019-02-26T20:31:09.312Z,62743.25
2019-02-26T20:33:35.532Z,62748.15
2019-02-26T20:36:01.783Z,62750.74
2019-02-26T20:38:32.325Z,62741.08
2019-02-26T20:40:56.165Z,62745.09
2019-02-26T20:43:22.398Z,62739.24
2019-02-26T20:45:51.212Z,62745.71
2019-02-26T20:48:16.790Z,62745.09
2019-02-26T20:50:43.040Z,62753.86
2019-02-26T20:53:09.276Z,62753.66
2019-02-26T20:58:13.078Z,62754.13
2019-02-26T21:00:42.364Z,62761.83
2019-02-26T21:03:08.095Z,62764.00
2019-02-26T21:05:35.665Z,62759.57
2019-02-26T21:08:01.897Z,62765.84
2019-02-26T21:10:28.126Z,62761.75
2019-02-26T21:12:54.363Z,62767.93
2019-02-26T21:16:01.942Z,62766.64
2019-02-26T21:21:28.621Z,62769.60
2019-02-26T21:23:54.923Z,62749.45
2019-02-26T21:26:21.117Z,62753.11
2019-02-26T21:28:47.346Z,62748.63
2019-02-26T21:31:13.578Z,62756.18
2019-02-26T21:33:39.822Z,62770.13
2019-02-26T21:36:06.044Z,62773.19
2019-02-26T21:38:32.284Z,62780.46
2019-02-26T21:40:58.507Z,62786.64
2019-02-26T21:43:24.751Z,62780.79
2019-02-26T21:45:50.979Z,62775.56
2019-02-26T21:48:17.224Z,62782.38
2019-02-26T21:50:43.459Z,62783.80
2019-02-26T21:53:09.695Z,62778.82
2019-02-26T21:55:43.992Z,62771.75
2019-02-26T21:58:04.085Z,62761.88
2019-02-26T22:00:30.323Z,62776.93
2019-02-26T22:02:56.589Z,62773.79
2019-02-26T22:05:22.827Z,62773.12
2019-02-26T22:07:52.076Z,62784.85
2019-02-26T22:10:58.547Z,62765.89
2019-02-26T22:13:29.048Z,62769.38
2019-02-26T22:15:52.990Z,62778.15
2019-02-26T22:18:19.235Z,62783.05
2019-02-26T22:20:45.458Z,62778.70
2019-02-26T22:23:11.698Z,62767.93
2019-02-26T22:25:37.948Z,62780.48
2019-02-26T22:28:04.192Z,62762.30
2019-02-26T22:30:30.434Z,62767.96
2019-02-26T22:32:56.661Z,62751.74
2019-02-26T22:35:25.617Z,62763.80
2019-02-26T22:37:51.043Z,62762.50
2019-02-26T22:40:17.279Z,62764.69
2019-02-26T22:42:43.508Z,62751.69
2019-02-26T22:45:51.060Z,62746.16
2019-02-26T22:48:17.307Z,62748.55
2019-02-26T22:50:43.540Z,62746.18
2019-02-26T22:53:09.763Z,62730.40
2019-02-26T22:55:36.001Z,62736.05
2019-02-26T22:58:02.811Z,62744.42
2019-02-26T23:01:02.696Z,62751.64
2019-02-26T23:03:28.936Z,62735.70
2019-02-26T23:05:58.782Z,62735.08
2019-02-26T23:08:23.450Z,62734.88
2019-02-26T23:10:51.248Z,62736.80
2019-02-26T23:13:17.934Z,62734.21
2019-02-26T23:15:45.856Z,62725.49
2019-02-26T23:18:12.415Z,62721.68
2019-02-26T23:20:42.585Z,62725.02
2019-02-26T23:23:06.819Z,62725.62
2019-02-26T23:25:33.628Z,62719.64
2019-02-26T23:31:27.259Z,62714.41
2019-02-26T23:33:53.501Z,62720.63
2019-02-26T23:36:19.752Z,62721.70
2019-02-26T23:39:07.549Z,62715.58
2019-02-26T23:44:27.921Z,62717.42
2019-02-26T23:46:54.137Z,62715.23
2019-02-26T23:49:20.361Z,62706.32
2019-02-26T23:51:46.611Z,62700.54
2019-02-26T23:54:12.915Z,62695.72
2019-02-26T23:56:39.147Z,62699.80
2019-02-26T23:59:05.375Z,62695.99
